sensor_id;sensor_type;location;lat;lon;timestamp;temperature;humidity
4175;DHT22;2101;48.290;14.382;2023-10-13T00:00:33;15.80;99.90
4175;DHT22;2101;48.290;14.382;2023-10-13T00:03:05;15.80;99.90
4175;DHT22;2101;48.290;14.382;2023-10-13T00:05:32;15.70;99.90
4175;DHT22;2101;48.290;14.382;2023-10-13T00:08:02;15.70;99.90
4175;DHT22;2101;48.290;14.382;2023-10-13T00:10:31;15.80;99.90
4175;DHT22;2101;48.290;14.382;2023-10-13T00:12:57;15.80;99.90
4175;DHT22;2101;48.290;14.382;2023-10-13T00:15:42;15.80;99.90
4175;DHT22;2101;48.290;14.382;2023-10-13T00:18:30;15.90;99.90
4175;DHT22;2101;48.290;14.382;2023-10-13T00:21:02;15.90;99.90
4175;DHT22;2101;48.290;14.382;2023-10-13T00:23:47;15.90;99.90
4175;DHT22;2101;48.290;14.382;2023-10-13T00:26:23;15.90;99.90
4175;DHT22;2101;48.290;14.382;2023-10-13T00:29:02;15.80;99.90
4175;DHT22;2101;48.290;14.382;2023-10-13T00:31:42;15.80;99.90
4175;DHT22;2101;48.290;14.382;2023-10-13T00:34:11;15.80;99.90
4175;DHT22;2101;48.290;14.382;2023-10-13T00:36:41;15.70;99.90
4175;DHT22;2101;48.290;14.382;2023-10-13T00:39:44;15.80;99.90
4175;DHT22;2101;48.290;14.382;2023-10-13T00:42:11;15.80;99.90
4175;DHT22;2101;48.290;14.382;2023-10-13T00:44:48;15.80;99.90
4175;DHT22;2101;48.290;14.382;2023-10-13T00:47:16;15.70;99.90
4175;DHT22;2101;48.290;14.382;2023-10-13T00:50:09;15.80;99.90
4175;DHT22;2101;48.290;14.382;2023-10-13T00:52:37;15.70;99.90
4175;DHT22;2101;48.290;14.382;2023-10-13T00:55:07;15.70;99.90
4175;DHT22;2101;48.290;14.382;2023-10-13T00:57:35;15.60;99.90
4175;DHT22;2101;48.290;14.382;2023-10-13T01:00:05;15.60;99.90
4175;DHT22;2101;48.290;14.382;2023-10-13T01:02:44;15.70;99.90
4175;DHT22;2101;48.290;14.382;2023-10-13T01:05:20;15.80;99.90
4175;DHT22;2101;48.290;14.382;2023-10-13T01:07:47;15.80;99.90
4175;DHT22;2101;48.290;14.382;2023-10-13T01:10:20;15.90;99.90
4175;DHT22;2101;48.290;14.382;2023-10-13T01:12:51;15.90;99.90
4175;DHT22;2101;48.290;14.382;2023-10-13T01:15:18;15.90;99.90
4175;DHT22;2101;48.290;14.382;2023-10-13T01:17:48;15.90;99.90
4175;DHT22;2101;48.290;14.382;2023-10-13T01:20:14;15.90;99.90
4175;DHT22;2101;48.290;14.382;2023-10-13T01:22:47;15.90;99.90
4175;DHT22;2101;48.290;14.382;2023-10-13T01:25:25;15.80;99.90
4175;DHT22;2101;48.290;14.382;2023-10-13T01:27:52;15.80;99.90
4175;DHT22;2101;48.290;14.382;2023-10-13T01:30:18;15.70;99.90
4175;DHT22;2101;48.290;14.382;2023-10-13T01:32:53;15.70;99.90
4175;DHT22;2101;48.290;14.382;2023-10-13T01:35:20;15.70;99.90
4175;DHT22;2101;48.290;14.382;2023-10-13T01:37:52;15.60;99.90
4175;DHT22;2101;48.290;14.382;2023-10-13T01:40:21;15.60;99.90
4175;DHT22;2101;48.290;14.382;2023-10-13T01:42:54;15.60;99.90
4175;DHT22;2101;48.290;14.382;2023-10-13T01:45:23;15.50;99.90
4175;DHT22;2101;48.290;14.382;2023-10-13T01:47:54;15.50;99.90
4175;DHT22;2101;48.290;14.382;2023-10-13T01:50:21;15.30;99.90
4175;DHT22;2101;48.290;14.382;2023-10-13T01:52:54;15.30;99.90
4175;DHT22;2101;48.290;14.382;2023-10-13T01:55:46;15.30;99.90
4175;DHT22;2101;48.290;14.382;2023-10-13T01:58:14;15.10;99.90
4175;DHT22;2101;48.290;14.382;2023-10-13T02:00:48;14.70;99.90
4175;DHT22;2101;48.290;14.382;2023-10-13T02:03:15;14.60;99.90
4175;DHT22;2101;48.290;14.382;2023-10-13T02:05:47;14.50;99.90
4175;DHT22;2101;48.290;14.382;2023-10-13T02:08:18;14.50;99.90
4175;DHT22;2101;48.290;14.382;2023-10-13T02:10:52;14.50;99.90
4175;DHT22;2101;48.290;14.382;2023-10-13T02:13:22;14.50;99.90
4175;DHT22;2101;48.290;14.382;2023-10-13T02:15:56;14.50;99.90
4175;DHT22;2101;48.290;14.382;2023-10-13T02:18:23;14.40;99.90
4175;DHT22;2101;48.290;14.382;2023-10-13T02:20:56;14.40;99.90
4175;DHT22;2101;48.290;14.382;2023-10-13T02:23:23;14.40;99.90
4175;DHT22;2101;48.290;14.382;2023-10-13T02:25:50;14.40;99.90
4175;DHT22;2101;48.290;14.382;2023-10-13T02:28:27;14.30;99.90
4175;DHT22;2101;48.290;14.382;2023-10-13T02:30:54;14.30;99.90
4175;DHT22;2101;48.290;14.382;2023-10-13T02:33:23;14.30;99.90
4175;DHT22;2101;48.290;14.382;2023-10-13T02:36:02;14.30;99.90
4175;DHT22;2101;48.290;14.382;2023-10-13T02:38:34;14.30;99.90
4175;DHT22;2101;48.290;14.382;2023-10-13T02:41:17;14.30;99.90
4175;DHT22;2101;48.290;14.382;2023-10-13T02:43:54;14.30;99.90
4175;DHT22;2101;48.290;14.382;2023-10-13T02:46:20;14.20;99.90
4175;DHT22;2101;48.290;14.382;2023-10-13T02:48:51;14.30;99.90
4175;DHT22;2101;48.290;14.382;2023-10-13T02:51:20;14.30;99.90
4175;DHT22;2101;48.290;14.382;2023-10-13T02:53:51;14.20;99.90
4175;DHT22;2101;48.290;14.382;2023-10-13T02:56:18;14.20;99.90
4175;DHT22;2101;48.290;14.382;2023-10-13T02:58:52;14.30;99.90
4175;DHT22;2101;48.290;14.382;2023-10-13T03:01:32;14.30;99.90
4175;DHT22;2101;48.290;14.382;2023-10-13T03:04:00;14.30;99.90
4175;DHT22;2101;48.290;14.382;2023-10-13T03:06:26;14.30;99.90
4175;DHT22;2101;48.290;14.382;2023-10-13T03:08:59;14.30;99.90
4175;DHT22;2101;48.290;14.382;2023-10-13T03:11:46;14.10;99.90
4175;DHT22;2101;48.290;14.382;2023-10-13T03:14:20;14.00;99.90
4175;DHT22;2101;48.290;14.382;2023-10-13T03:17:00;14.00;99.90
4175;DHT22;2101;48.290;14.382;2023-10-13T03:19:34;14.00;99.90
4175;DHT22;2101;48.290;14.382;2023-10-13T03:22:10;14.00;99.90
4175;DHT22;2101;48.290;14.382;2023-10-13T03:24:37;14.00;99.90
4175;DHT22;2101;48.290;14.382;2023-10-13T03:27:19;13.90;99.90
4175;DHT22;2101;48.290;14.382;2023-10-13T03:30:05;13.90;99.90
4175;DHT22;2101;48.290;14.382;2023-10-13T03:32:36;13.90;99.90
4175;DHT22;2101;48.290;14.382;2023-10-13T03:35:09;13.90;99.90
4175;DHT22;2101;48.290;14.382;2023-10-13T03:37:50;13.80;99.90
4175;DHT22;2101;48.290;14.382;2023-10-13T03:40:16;13.80;99.90
4175;DHT22;2101;48.290;14.382;2023-10-13T03:42:48;13.80;99.90
4175;DHT22;2101;48.290;14.382;2023-10-13T03:45:39;13.80;99.90
4175;DHT22;2101;48.290;14.382;2023-10-13T03:50:54;13.80;99.90
4175;DHT22;2101;48.290;14.382;2023-10-13T03:53:36;13.80;99.90
4175;DHT22;2101;48.290;14.382;2023-10-13T03:56:22;13.90;99.90
4175;DHT22;2101;48.290;14.382;2023-10-13T03:59:17;13.90;99.90
4175;DHT22;2101;48.290;14.382;2023-10-13T04:01:45;13.90;99.90
4175;DHT22;2101;48.290;14.382;2023-10-13T04:04:20;13.80;99.90
4175;DHT22;2101;48.290;14.382;2023-10-13T04:07:00;13.80;99.90
4175;DHT22;2101;48.290;14.382;2023-10-13T04:09:41;13.90;99.90
4175;DHT22;2101;48.290;14.382;2023-10-13T04:12:13;13.80;99.90
4175;DHT22;2101;48.290;14.382;2023-10-13T04:14:45;13.80;99.90
4175;DHT22;2101;48.290;14.382;2023-10-13T04:17:26;13.80;99.90
4175;DHT22;2101;48.290;14.382;2023-10-13T04:19:54;13.70;99.90
4175;DHT22;2101;48.290;14.382;2023-10-13T04:22:34;13.70;99.90
4175;DHT22;2101;48.290;14.382;2023-10-13T04:25:22;13.70;99.90
4175;DHT22;2101;48.290;14.382;2023-10-13T04:28:12;13.70;99.90
4175;DHT22;2101;48.290;14.382;2023-10-13T04:30:56;13.70;99.90
4175;DHT22;2101;48.290;14.382;2023-10-13T04:33:33;13.70;99.90
4175;DHT22;2101;48.290;14.382;2023-10-13T04:36:13;13.70;99.90
4175;DHT22;2101;48.290;14.382;2023-10-13T04:38:43;13.70;99.90
4175;DHT22;2101;48.290;14.382;2023-10-13T04:41:18;13.80;99.90
4175;DHT22;2101;48.290;14.382;2023-10-13T04:43:48;13.70;99.90
4175;DHT22;2101;48.290;14.382;2023-10-13T04:46:23;13.60;99.90
4175;DHT22;2101;48.290;14.382;2023-10-13T04:49:05;13.50;99.90
4175;DHT22;2101;48.290;14.382;2023-10-13T04:51:53;13.50;99.90
4175;DHT22;2101;48.290;14.382;2023-10-13T04:54:45;13.60;99.90
4175;DHT22;2101;48.290;14.382;2023-10-13T04:57:20;13.70;99.90
4175;DHT22;2101;48.290;14.382;2023-10-13T04:59:47;13.80;99.90
4175;DHT22;2101;48.290;14.382;2023-10-13T05:02:31;13.80;99.90
4175;DHT22;2101;48.290;14.382;2023-10-13T05:05:15;13.90;99.90
4175;DHT22;2101;48.290;14.382;2023-10-13T05:07:45;14.00;99.90
4175;DHT22;2101;48.290;14.382;2023-10-13T05:10:30;14.10;99.90
4175;DHT22;2101;48.290;14.382;2023-10-13T05:13:15;14.10;99.90
4175;DHT22;2101;48.290;14.382;2023-10-13T05:16:00;14.00;99.90
4175;DHT22;2101;48.290;14.382;2023-10-13T05:18:45;14.00;99.90
4175;DHT22;2101;48.290;14.382;2023-10-13T05:21:29;14.00;99.90
4175;DHT22;2101;48.290;14.382;2023-10-13T05:24:14;14.00;99.90
4175;DHT22;2101;48.290;14.382;2023-10-13T05:26:58;14.00;99.90
4175;DHT22;2101;48.290;14.382;2023-10-13T05:29:45;14.10;99.90
4175;DHT22;2101;48.290;14.382;2023-10-13T05:32:30;14.10;99.90
4175;DHT22;2101;48.290;14.382;2023-10-13T05:35:16;14.10;99.90
4175;DHT22;2101;48.290;14.382;2023-10-13T05:38:00;14.10;99.90
4175;DHT22;2101;48.290;14.382;2023-10-13T05:40:58;14.20;99.90
4175;DHT22;2101;48.290;14.382;2023-10-13T05:43:43;14.20;99.90
4175;DHT22;2101;48.290;14.382;2023-10-13T05:46:28;14.20;99.90
4175;DHT22;2101;48.290;14.382;2023-10-13T05:48:54;14.30;99.90
4175;DHT22;2101;48.290;14.382;2023-10-13T05:51:23;14.30;99.90
4175;DHT22;2101;48.290;14.382;2023-10-13T05:54:00;14.40;99.90
4175;DHT22;2101;48.290;14.382;2023-10-13T05:56:48;14.40;99.90
4175;DHT22;2101;48.290;14.382;2023-10-13T05:59:35;14.50;99.90
4175;DHT22;2101;48.290;14.382;2023-10-13T06:02:24;14.60;99.90
4175;DHT22;2101;48.290;14.382;2023-10-13T06:05:12;14.60;99.90
4175;DHT22;2101;48.290;14.382;2023-10-13T06:07:57;14.70;99.90
4175;DHT22;2101;48.290;14.382;2023-10-13T06:10:42;14.80;99.90
4175;DHT22;2101;48.290;14.382;2023-10-13T06:13:27;14.80;99.90
4175;DHT22;2101;48.290;14.382;2023-10-13T06:16:13;14.90;99.90
4175;DHT22;2101;48.290;14.382;2023-10-13T06:19:02;15.00;99.90
4175;DHT22;2101;48.290;14.382;2023-10-13T06:21:47;15.00;99.90
4175;DHT22;2101;48.290;14.382;2023-10-13T06:24:32;15.10;99.90
4175;DHT22;2101;48.290;14.382;2023-10-13T06:27:17;15.10;99.90
4175;DHT22;2101;48.290;14.382;2023-10-13T06:30:02;15.20;99.90
4175;DHT22;2101;48.290;14.382;2023-10-13T06:32:30;15.30;99.90
4175;DHT22;2101;48.290;14.382;2023-10-13T06:34:58;15.40;99.90
4175;DHT22;2101;48.290;14.382;2023-10-13T06:37:25;15.40;99.90
4175;DHT22;2101;48.290;14.382;2023-10-13T06:40:08;15.70;99.90
4175;DHT22;2101;48.290;14.382;2023-10-13T06:42:56;16.60;99.90
4175;DHT22;2101;48.290;14.382;2023-10-13T06:45:37;17.30;99.90
4175;DHT22;2101;48.290;14.382;2023-10-13T06:48:04;17.80;99.90
4175;DHT22;2101;48.290;14.382;2023-10-13T06:50:31;18.30;99.90
4175;DHT22;2101;48.290;14.382;2023-10-13T06:53:04;18.50;99.90
4175;DHT22;2101;48.290;14.382;2023-10-13T06:55:30;18.60;99.90
4175;DHT22;2101;48.290;14.382;2023-10-13T06:58:12;18.80;99.90
4175;DHT22;2101;48.290;14.382;2023-10-13T07:00:40;18.70;99.90
4175;DHT22;2101;48.290;14.382;2023-10-13T07:03:07;18.80;99.90
4175;DHT22;2101;48.290;14.382;2023-10-13T07:05:39;19.10;99.90
4175;DHT22;2101;48.290;14.382;2023-10-13T07:08:07;19.20;99.90
4175;DHT22;2101;48.290;14.382;2023-10-13T07:10:34;18.90;99.90
4175;DHT22;2101;48.290;14.382;2023-10-13T07:13:23;19.20;99.90
4175;DHT22;2101;48.290;14.382;2023-10-13T07:15:49;19.40;99.90
4175;DHT22;2101;48.290;14.382;2023-10-13T07:18:15;19.60;99.90
4175;DHT22;2101;48.290;14.382;2023-10-13T07:20:43;19.70;99.90
4175;DHT22;2101;48.290;14.382;2023-10-13T07:23:13;19.60;99.90
4175;DHT22;2101;48.290;14.382;2023-10-13T07:25:53;19.70;99.90
4175;DHT22;2101;48.290;14.382;2023-10-13T07:28:32;19.60;99.90
4175;DHT22;2101;48.290;14.382;2023-10-13T07:31:05;19.70;99.90
4175;DHT22;2101;48.290;14.382;2023-10-13T07:33:30;19.30;99.90
4175;DHT22;2101;48.290;14.382;2023-10-13T07:36:06;19.40;99.90
4175;DHT22;2101;48.290;14.382;2023-10-13T07:38:42;19.30;99.90
4175;DHT22;2101;48.290;14.382;2023-10-13T07:41:09;18.90;99.90
4175;DHT22;2101;48.290;14.382;2023-10-13T07:43:41;18.60;99.90
4175;DHT22;2101;48.290;14.382;2023-10-13T07:46:11;18.50;99.90
4175;DHT22;2101;48.290;14.382;2023-10-13T07:48:40;18.30;99.90
4175;DHT22;2101;48.290;14.382;2023-10-13T07:51:08;18.30;99.90
4175;DHT22;2101;48.290;14.382;2023-10-13T07:53:45;18.10;99.90
4175;DHT22;2101;48.290;14.382;2023-10-13T07:56:14;17.80;99.90
4175;DHT22;2101;48.290;14.382;2023-10-13T07:58:45;17.90;99.90
4175;DHT22;2101;48.290;14.382;2023-10-13T08:01:26;17.90;99.90
4175;DHT22;2101;48.290;14.382;2023-10-13T08:03:52;17.90;99.90
4175;DHT22;2101;48.290;14.382;2023-10-13T08:06:31;17.90;99.90
4175;DHT22;2101;48.290;14.382;2023-10-13T08:08:56;17.90;99.90
4175;DHT22;2101;48.290;14.382;2023-10-13T08:11:36;18.00;99.90
4175;DHT22;2101;48.290;14.382;2023-10-13T08:14:06;18.00;99.90
4175;DHT22;2101;48.290;14.382;2023-10-13T08:16:44;18.10;99.90
4175;DHT22;2101;48.290;14.382;2023-10-13T08:19:24;18.20;99.90
4175;DHT22;2101;48.290;14.382;2023-10-13T08:22:02;18.30;99.90
4175;DHT22;2101;48.290;14.382;2023-10-13T08:25:00;18.40;99.90
4175;DHT22;2101;48.290;14.382;2023-10-13T08:27:46;18.60;99.90
4175;DHT22;2101;48.290;14.382;2023-10-13T08:30:17;18.70;99.90
4175;DHT22;2101;48.290;14.382;2023-10-13T08:32:53;18.80;99.90
4175;DHT22;2101;48.290;14.382;2023-10-13T08:35:33;18.90;99.90
4175;DHT22;2101;48.290;14.382;2023-10-13T08:38:00;18.90;99.90
4175;DHT22;2101;48.290;14.382;2023-10-13T08:40:30;18.90;99.90
4175;DHT22;2101;48.290;14.382;2023-10-13T08:43:12;19.00;99.90
4175;DHT22;2101;48.290;14.382;2023-10-13T08:45:41;19.30;99.90
4175;DHT22;2101;48.290;14.382;2023-10-13T08:48:13;19.50;99.90
4175;DHT22;2101;48.290;14.382;2023-10-13T08:50:47;19.40;99.90
4175;DHT22;2101;48.290;14.382;2023-10-13T08:53:19;19.50;99.90
4175;DHT22;2101;48.290;14.382;2023-10-13T08:56:12;19.60;99.90
4175;DHT22;2101;48.290;14.382;2023-10-13T08:58:39;19.50;99.90
4175;DHT22;2101;48.290;14.382;2023-10-13T09:01:25;19.50;99.90
4175;DHT22;2101;48.290;14.382;2023-10-13T09:04:26;19.50;99.90
4175;DHT22;2101;48.290;14.382;2023-10-13T09:07:03;19.60;99.90
4175;DHT22;2101;48.290;14.382;2023-10-13T09:12:15;20.00;99.90
4175;DHT22;2101;48.290;14.382;2023-10-13T09:14:43;20.10;99.90
4175;DHT22;2101;48.290;14.382;2023-10-13T09:17:25;20.00;99.90
4175;DHT22;2101;48.290;14.382;2023-10-13T09:20:03;20.10;99.90
4175;DHT22;2101;48.290;14.382;2023-10-13T09:22:53;20.00;99.90
4175;DHT22;2101;48.290;14.382;2023-10-13T09:28:03;20.40;99.90
4175;DHT22;2101;48.290;14.382;2023-10-13T09:30:47;20.30;99.90
4175;DHT22;2101;48.290;14.382;2023-10-13T09:33:13;20.40;99.90
4175;DHT22;2101;48.290;14.382;2023-10-13T09:35:54;20.50;99.90
4175;DHT22;2101;48.290;14.382;2023-10-13T09:38:20;20.60;99.90
4175;DHT22;2101;48.290;14.382;2023-10-13T09:40:46;20.60;99.90
4175;DHT22;2101;48.290;14.382;2023-10-13T09:43:19;20.70;99.90
4175;DHT22;2101;48.290;14.382;2023-10-13T09:45:48;20.70;99.90
4175;DHT22;2101;48.290;14.382;2023-10-13T09:48:37;20.60;99.90
4175;DHT22;2101;48.290;14.382;2023-10-13T09:51:33;20.80;99.90
4175;DHT22;2101;48.290;14.382;2023-10-13T09:54:04;20.70;99.90
4175;DHT22;2101;48.290;14.382;2023-10-13T09:56:58;20.80;99.90
4175;DHT22;2101;48.290;14.382;2023-10-13T09:59:55;20.90;99.90
4175;DHT22;2101;48.290;14.382;2023-10-13T10:02:19;21.00;99.90
4175;DHT22;2101;48.290;14.382;2023-10-13T10:04:57;21.20;99.90
4175;DHT22;2101;48.290;14.382;2023-10-13T10:07:55;21.30;99.90
4175;DHT22;2101;48.290;14.382;2023-10-13T10:10:22;21.30;99.90
4175;DHT22;2101;48.290;14.382;2023-10-13T10:13:13;21.50;99.90
4175;DHT22;2101;48.290;14.382;2023-10-13T10:15:46;21.50;99.90
4175;DHT22;2101;48.290;14.382;2023-10-13T10:18:23;21.50;99.90
4175;DHT22;2101;48.290;14.382;2023-10-13T10:21:04;21.50;99.90
4175;DHT22;2101;48.290;14.382;2023-10-13T10:23:37;21.50;99.90
4175;DHT22;2101;48.290;14.382;2023-10-13T10:26:16;21.70;99.90
4175;DHT22;2101;48.290;14.382;2023-10-13T10:28:47;21.70;99.90
4175;DHT22;2101;48.290;14.382;2023-10-13T10:31:14;21.70;99.90
4175;DHT22;2101;48.290;14.382;2023-10-13T10:33:43;21.80;99.90
4175;DHT22;2101;48.290;14.382;2023-10-13T10:36:10;21.80;99.90
4175;DHT22;2101;48.290;14.382;2023-10-13T10:41:26;21.80;99.90
4175;DHT22;2101;48.290;14.382;2023-10-13T10:43:58;21.80;99.90
4175;DHT22;2101;48.290;14.382;2023-10-13T10:46:28;21.80;99.90
4175;DHT22;2101;48.290;14.382;2023-10-13T10:49:04;21.90;99.90
4175;DHT22;2101;48.290;14.382;2023-10-13T10:51:37;22.00;99.90
4175;DHT22;2101;48.290;14.382;2023-10-13T10:54:18;22.20;99.90
4175;DHT22;2101;48.290;14.382;2023-10-13T10:56:46;22.30;99.90
4175;DHT22;2101;48.290;14.382;2023-10-13T10:59:18;22.50;99.90
4175;DHT22;2101;48.290;14.382;2023-10-13T11:01:46;22.60;99.90
4175;DHT22;2101;48.290;14.382;2023-10-13T11:04:13;22.70;99.90
4175;DHT22;2101;48.290;14.382;2023-10-13T11:06:54;22.80;99.90
4175;DHT22;2101;48.290;14.382;2023-10-13T11:09:34;22.80;99.90
4175;DHT22;2101;48.290;14.382;2023-10-13T11:12:14;22.90;99.90
4175;DHT22;2101;48.290;14.382;2023-10-13T11:14:45;23.00;99.90
4175;DHT22;2101;48.290;14.382;2023-10-13T11:17:23;23.00;99.90
4175;DHT22;2101;48.290;14.382;2023-10-13T11:20:08;23.00;99.90
4175;DHT22;2101;48.290;14.382;2023-10-13T11:23:14;23.00;99.90
4175;DHT22;2101;48.290;14.382;2023-10-13T11:25:41;23.10;99.90
4175;DHT22;2101;48.290;14.382;2023-10-13T11:28:14;23.00;99.90
4175;DHT22;2101;48.290;14.382;2023-10-13T11:30:47;23.20;99.90
4175;DHT22;2101;48.290;14.382;2023-10-13T11:33:17;23.00;99.90
4175;DHT22;2101;48.290;14.382;2023-10-13T11:35:45;23.10;99.90
4175;DHT22;2101;48.290;14.382;2023-10-13T11:38:27;23.00;99.90
4175;DHT22;2101;48.290;14.382;2023-10-13T11:41:02;23.00;99.90
4175;DHT22;2101;48.290;14.382;2023-10-13T11:43:35;23.00;99.90
4175;DHT22;2101;48.290;14.382;2023-10-13T11:46:22;23.00;99.90
4175;DHT22;2101;48.290;14.382;2023-10-13T11:49:07;23.00;99.90
4175;DHT22;2101;48.290;14.382;2023-10-13T11:51:42;23.00;99.90
4175;DHT22;2101;48.290;14.382;2023-10-13T11:54:19;23.00;99.90
4175;DHT22;2101;48.290;14.382;2023-10-13T11:56:45;23.00;99.90
4175;DHT22;2101;48.290;14.382;2023-10-13T11:59:15;23.10;99.90
4175;DHT22;2101;48.290;14.382;2023-10-13T12:01:47;23.20;99.90
4175;DHT22;2101;48.290;14.382;2023-10-13T12:04:32;23.20;99.90
4175;DHT22;2101;48.290;14.382;2023-10-13T12:07:17;23.20;99.90
4175;DHT22;2101;48.290;14.382;2023-10-13T12:09:46;23.10;99.90
4175;DHT22;2101;48.290;14.382;2023-10-13T12:12:25;23.20;99.90
4175;DHT22;2101;48.290;14.382;2023-10-13T12:14:51;23.30;99.90
4175;DHT22;2101;48.290;14.382;2023-10-13T12:17:30;23.30;99.90
4175;DHT22;2101;48.290;14.382;2023-10-13T12:20:06;23.40;99.90
4175;DHT22;2101;48.290;14.382;2023-10-13T12:22:37;23.50;99.90
4175;DHT22;2101;48.290;14.382;2023-10-13T12:25:09;23.40;99.90
4175;DHT22;2101;48.290;14.382;2023-10-13T12:27:53;23.40;99.90
4175;DHT22;2101;48.290;14.382;2023-10-13T12:30:39;23.40;99.10
4175;DHT22;2101;48.290;14.382;2023-10-13T12:33:15;23.30;96.50
4175;DHT22;2101;48.290;14.382;2023-10-13T12:35:50;23.30;97.10
4175;DHT22;2101;48.290;14.382;2023-10-13T12:38:35;23.30;96.20
4175;DHT22;2101;48.290;14.382;2023-10-13T12:41:15;23.40;95.80
4175;DHT22;2101;48.290;14.382;2023-10-13T12:44:03;23.40;95.40
4175;DHT22;2101;48.290;14.382;2023-10-13T12:46:47;23.60;97.30
4175;DHT22;2101;48.290;14.382;2023-10-13T12:49:36;23.70;96.80
4175;DHT22;2101;48.290;14.382;2023-10-13T12:52:08;23.90;96.70
4175;DHT22;2101;48.290;14.382;2023-10-13T12:54:51;23.90;97.00
4175;DHT22;2101;48.290;14.382;2023-10-13T12:57:23;23.90;96.90
4175;DHT22;2101;48.290;14.382;2023-10-13T12:59:51;24.00;96.70
4175;DHT22;2101;48.290;14.382;2023-10-13T13:02:24;24.10;96.60
4175;DHT22;2101;48.290;14.382;2023-10-13T13:04:55;24.10;95.80
4175;DHT22;2101;48.290;14.382;2023-10-13T13:07:31;24.10;95.20
4175;DHT22;2101;48.290;14.382;2023-10-13T13:09:58;24.20;94.90
4175;DHT22;2101;48.290;14.382;2023-10-13T13:12:27;24.30;95.00
4175;DHT22;2101;48.290;14.382;2023-10-13T13:14:56;24.30;95.20
4175;DHT22;2101;48.290;14.382;2023-10-13T13:17:21;24.40;95.10
4175;DHT22;2101;48.290;14.382;2023-10-13T13:19:47;24.40;94.10
4175;DHT22;2101;48.290;14.382;2023-10-13T13:22:13;24.30;93.60
4175;DHT22;2101;48.290;14.382;2023-10-13T13:24:39;24.40;93.50
4175;DHT22;2101;48.290;14.382;2023-10-13T13:27:15;24.50;94.00
4175;DHT22;2101;48.290;14.382;2023-10-13T13:29:44;24.50;92.20
4175;DHT22;2101;48.290;14.382;2023-10-13T13:32:10;24.50;93.00
4175;DHT22;2101;48.290;14.382;2023-10-13T13:34:50;24.50;92.00
4175;DHT22;2101;48.290;14.382;2023-10-13T13:37:32;24.40;91.10
4175;DHT22;2101;48.290;14.382;2023-10-13T13:39:58;24.20;90.30
4175;DHT22;2101;48.290;14.382;2023-10-13T13:42:41;24.40;91.70
4175;DHT22;2101;48.290;14.382;2023-10-13T13:45:12;24.40;90.40
4175;DHT22;2101;48.290;14.382;2023-10-13T13:47:49;24.50;90.90
4175;DHT22;2101;48.290;14.382;2023-10-13T13:50:25;24.40;90.50
4175;DHT22;2101;48.290;14.382;2023-10-13T13:52:57;24.50;91.80
4175;DHT22;2101;48.290;14.382;2023-10-13T13:55:24;24.60;93.50
4175;DHT22;2101;48.290;14.382;2023-10-13T13:57:50;24.60;94.10
4175;DHT22;2101;48.290;14.382;2023-10-13T14:00:19;24.50;95.00
4175;DHT22;2101;48.290;14.382;2023-10-13T14:03:05;24.70;95.10
4175;DHT22;2101;48.290;14.382;2023-10-13T14:05:31;24.50;92.70
4175;DHT22;2101;48.290;14.382;2023-10-13T14:07:57;24.50;92.70
4175;DHT22;2101;48.290;14.382;2023-10-13T14:10:23;24.50;92.70
4175;DHT22;2101;48.290;14.382;2023-10-13T14:13:03;24.50;93.70
4175;DHT22;2101;48.290;14.382;2023-10-13T14:15:41;24.50;94.00
4175;DHT22;2101;48.290;14.382;2023-10-13T14:18:10;24.40;93.40
4175;DHT22;2101;48.290;14.382;2023-10-13T14:20:46;24.50;93.30
4175;DHT22;2101;48.290;14.382;2023-10-13T14:23:16;24.40;93.40
4175;DHT22;2101;48.290;14.382;2023-10-13T14:25:44;24.30;92.40
4175;DHT22;2101;48.290;14.382;2023-10-13T14:28:11;24.20;92.50
4175;DHT22;2101;48.290;14.382;2023-10-13T14:30:42;24.20;92.80
4175;DHT22;2101;48.290;14.382;2023-10-13T14:33:08;24.20;92.90
4175;DHT22;2101;48.290;14.382;2023-10-13T14:35:36;24.10;91.60
4175;DHT22;2101;48.290;14.382;2023-10-13T14:38:03;24.10;91.80
4175;DHT22;2101;48.290;14.382;2023-10-13T14:40:29;24.20;92.30
4175;DHT22;2101;48.290;14.382;2023-10-13T14:42:55;24.20;92.80
4175;DHT22;2101;48.290;14.382;2023-10-13T14:45:22;24.20;92.30
4175;DHT22;2101;48.290;14.382;2023-10-13T14:47:47;24.30;92.30
4175;DHT22;2101;48.290;14.382;2023-10-13T14:50:13;24.30;92.50
4175;DHT22;2101;48.290;14.382;2023-10-13T14:52:49;24.20;92.10
4175;DHT22;2101;48.290;14.382;2023-10-13T14:55:15;24.10;91.80
4175;DHT22;2101;48.290;14.382;2023-10-13T14:57:48;24.10;92.90
4175;DHT22;2101;48.290;14.382;2023-10-13T15:00:16;24.00;92.10
4175;DHT22;2101;48.290;14.382;2023-10-13T15:02:53;24.00;92.90
4175;DHT22;2101;48.290;14.382;2023-10-13T15:05:20;24.10;94.20
4175;DHT22;2101;48.290;14.382;2023-10-13T15:07:45;24.00;95.80
4175;DHT22;2101;48.290;14.382;2023-10-13T15:10:13;24.00;96.20
4175;DHT22;2101;48.290;14.382;2023-10-13T15:12:41;23.90;95.80
4175;DHT22;2101;48.290;14.382;2023-10-13T15:15:11;23.80;95.70
4175;DHT22;2101;48.290;14.382;2023-10-13T15:17:42;23.70;96.10
4175;DHT22;2101;48.290;14.382;2023-10-13T15:20:08;23.60;96.70
4175;DHT22;2101;48.290;14.382;2023-10-13T15:22:36;23.50;97.10
4175;DHT22;2101;48.290;14.382;2023-10-13T15:25:04;23.40;96.90
4175;DHT22;2101;48.290;14.382;2023-10-13T15:27:47;23.10;97.30
4175;DHT22;2101;48.290;14.382;2023-10-13T15:30:22;23.00;95.90
4175;DHT22;2101;48.290;14.382;2023-10-13T15:32:51;22.90;96.00
4175;DHT22;2101;48.290;14.382;2023-10-13T15:35:18;22.80;96.10
4175;DHT22;2101;48.290;14.382;2023-10-13T15:37:43;22.80;96.80
4175;DHT22;2101;48.290;14.382;2023-10-13T15:40:16;22.50;98.80
4175;DHT22;2101;48.290;14.382;2023-10-13T15:42:42;22.30;99.30
4175;DHT22;2101;48.290;14.382;2023-10-13T15:45:12;22.10;99.70
4175;DHT22;2101;48.290;14.382;2023-10-13T15:47:45;21.90;99.90
4175;DHT22;2101;48.290;14.382;2023-10-13T15:50:15;21.80;99.90
4175;DHT22;2101;48.290;14.382;2023-10-13T15:52:46;21.70;99.90
4175;DHT22;2101;48.290;14.382;2023-10-13T15:55:16;21.60;99.90
4175;DHT22;2101;48.290;14.382;2023-10-13T15:57:43;21.50;99.90
4175;DHT22;2101;48.290;14.382;2023-10-13T16:00:11;21.40;99.90
4175;DHT22;2101;48.290;14.382;2023-10-13T16:02:57;21.30;99.90
4175;DHT22;2101;48.290;14.382;2023-10-13T16:05:28;21.20;99.90
4175;DHT22;2101;48.290;14.382;2023-10-13T16:07:55;21.10;99.90
4175;DHT22;2101;48.290;14.382;2023-10-13T16:10:23;21.00;99.90
4175;DHT22;2101;48.290;14.382;2023-10-13T16:12:49;20.90;99.90
4175;DHT22;2101;48.290;14.382;2023-10-13T16:15:15;20.80;99.90
4175;DHT22;2101;48.290;14.382;2023-10-13T16:17:41;20.70;99.90
4175;DHT22;2101;48.290;14.382;2023-10-13T16:20:09;20.60;99.90
4175;DHT22;2101;48.290;14.382;2023-10-13T16:22:45;20.50;99.90
4175;DHT22;2101;48.290;14.382;2023-10-13T16:25:12;20.40;99.90
4175;DHT22;2101;48.290;14.382;2023-10-13T16:27:40;20.30;99.90
4175;DHT22;2101;48.290;14.382;2023-10-13T16:30:14;20.20;99.90
4175;DHT22;2101;48.290;14.382;2023-10-13T16:32:45;20.10;99.90
4175;DHT22;2101;48.290;14.382;2023-10-13T16:35:13;20.00;99.90
4175;DHT22;2101;48.290;14.382;2023-10-13T16:37:44;19.90;99.90
4175;DHT22;2101;48.290;14.382;2023-10-13T16:40:14;19.80;99.90
4175;DHT22;2101;48.290;14.382;2023-10-13T16:42:40;19.70;99.90